Pagrindinis puslapis
METAR-TAF:

METAR-TAF

Oro uostai :

Seulas Inčonas, Pietų Korėja

platuma: 37-28N, ilguma: 126-27E, Aukštis: 7 m

Dabartinis oras

Ataskaita buvo paskelbta 20 minutes, ne 22:00 UTC
Vėjas 9 kt iš Šiaurės Vakarų
Temperatūra 8°C
Drėgmė 76%
Slėgis 1018 hPa
Matomumas: 4500 m
Mažai debesys ne aukštis 3000 ft
rūkana

METAR: RKSI 032200Z 32009KT 4500 BR FEW030 08/04 Q1018 BECMG 6000 NSW

Laikas: 07:20 (22:20 UTC)

Prognozė

Ataskaita buvo paskelbta 1 valandą ir 5 minutes, ne 21:15 UTC
Prognozė galioja nuo 03 metu 21 UTC su 04 metu 24 UTC
Vėjas 15 kt iš Vakarų/Šiaurės Vakarų su gūsio iki 25 kt
Matomumas: 3500 m
rūkana
Tapsmas
nuo 03 metu 22 UTC su 03 metu 23 UTC
Vėjas 20 kt iš Šiaurės/Šiaurės Vakarų su gūsio iki 35 kt
Matomumas 10 km arba daugiau
nėra debesų žemiau 1500 m ir nėra kamuolinių lietaus debesų
Tapsmas
nuo 04 metu 12 UTC su 04 metu 13 UTC
Vėjas 15 kt iš Šiaurės su gūsio iki 25 kt

TAF: RKSI 032115Z 0321/0424 29015G25KT 3500 BR NSC TN06/0321Z TX11/0406Z TN01/0421Z BECMG 0322/0323 34020G35KT CAVOK BECMG 0412/0413 35015G25KT

Orai ataskaitas ir orų prognozės (METAR, TAF).

turimą stotys yra geltonos ir raudonos taškus žemėlapyje.

Perkelti pele per norėdami pamatyti stoties vardą.

Tada spustelėkite, norėdami matyti oro stebėjimo ir prognozės.

Norėdami pakeisti žemėlapį: spustelėkite ant žalios mygtukų su juodo kryžiaus žemyn,; žalią mygtuką su brūkšneliu, jei norite nutolinti; arba žalių rodyklių gretimoms žemėlapius.


METAR-TAF: